createdAt,value
2023-01-19T00:00:32.498Z,2.17
2023-01-19T00:03:17.728Z,1.55
2023-01-19T00:06:07.288Z,2.53
2023-01-19T00:08:52.180Z,2.75
2023-01-19T00:11:37.644Z,3.00
2023-01-19T00:14:22.640Z,2.80
2023-01-19T00:17:07.750Z,2.58
2023-01-19T00:19:52.742Z,4.50
2023-01-19T00:22:37.816Z,2.40
2023-01-19T00:25:22.716Z,2.58
2023-01-19T00:28:11.964Z,1.77
2023-01-19T00:30:57.113Z,2.38
2023-01-19T00:33:41.999Z,2.42
2023-01-19T00:36:26.920Z,2.33
2023-01-19T00:39:12.036Z,0.98
2023-01-19T00:42:15.638Z,2.37
2023-01-19T00:45:00.697Z,2.20
2023-01-19T00:47:47.533Z,1.85
2023-01-19T00:50:33.194Z,1.75
2023-01-19T00:53:18.133Z,2.25
2023-01-19T00:56:03.424Z,1.83
2023-01-19T00:58:48.131Z,1.90
2023-01-19T01:01:45.941Z,1.52
2023-01-19T01:04:31.260Z,1.42
2023-01-19T01:07:16.051Z,1.45
2023-01-19T01:10:01.188Z,2.00
2023-01-19T01:12:57.347Z,2.08
2023-01-19T01:15:44.485Z,0.82
2023-01-19T01:18:29.690Z,1.58
2023-01-19T01:21:14.841Z,1.35
2023-01-19T01:24:00.403Z,1.67
2023-01-19T01:26:45.185Z,0.95
2023-01-19T01:29:30.058Z,1.63
2023-01-19T01:32:16.636Z,1.35
2023-01-19T01:35:01.979Z,1.40
2023-01-19T01:37:46.847Z,1.13
2023-01-19T01:40:31.556Z,1.00
2023-01-19T01:43:18.527Z,0.85
2023-01-19T01:46:03.840Z,0.65
2023-01-19T01:48:54.907Z,0.98
2023-01-19T01:51:43.682Z,0.80
2023-01-19T01:54:33.676Z,0.90
2023-01-19T01:57:19.274Z,0.88
2023-01-19T02:00:06.011Z,0.95
2023-01-19T02:02:51.370Z,1.15
2023-01-19T02:05:36.605Z,0.90
2023-01-19T02:08:49.040Z,1.15
2023-01-19T02:11:54.070Z,0.40
2023-01-19T02:14:39.154Z,0.40
2023-01-19T02:17:24.652Z,0.70
2023-01-19T02:20:10.712Z,0.70
2023-01-19T02:23:00.690Z,1.30
2023-01-19T02:25:48.218Z,0.88
2023-01-19T02:28:33.873Z,1.02
2023-01-19T02:31:19.823Z,0.80
2023-01-19T02:34:07.805Z,0.97
2023-01-19T02:36:57.462Z,1.38
2023-01-19T02:39:51.269Z,1.30
2023-01-19T02:42:44.402Z,0.35
2023-01-19T02:45:30.442Z,0.60
2023-01-19T02:48:17.828Z,1.30
2023-01-19T02:51:23.870Z,1.13
2023-01-19T02:54:21.291Z,1.35
2023-01-19T02:57:12.876Z,1.35
2023-01-19T03:00:19.692Z,1.20
2023-01-19T03:03:23.453Z,0.77
2023-01-19T03:06:25.424Z,0.52
2023-01-19T03:09:34.972Z,1.00
2023-01-19T03:12:25.859Z,1.08
2023-01-19T03:15:28.913Z,1.88
2023-01-19T03:18:20.164Z,0.17
2023-01-19T03:21:07.032Z,1.65
2023-01-19T03:23:54.954Z,1.13
2023-01-19T03:26:57.581Z,0.93
2023-01-19T03:29:50.696Z,0.90
2023-01-19T03:32:40.975Z,0.90
2023-01-19T03:35:30.613Z,1.48
2023-01-19T03:38:22.077Z,1.20
2023-01-19T03:41:11.303Z,0.82
2023-01-19T03:43:57.701Z,0.70
2023-01-19T03:46:44.331Z,1.00
2023-01-19T03:49:31.616Z,0.70
2023-01-19T03:52:16.652Z,0.75
2023-01-19T03:55:04.320Z,0.70
2023-01-19T03:57:49.154Z,0.40
2023-01-19T04:00:36.381Z,1.23
2023-01-19T04:03:21.567Z,0.98
2023-01-19T04:06:07.998Z,0.95
2023-01-19T04:08:52.967Z,0.77
2023-01-19T04:11:38.244Z,1.17
2023-01-19T04:14:23.377Z,0.67
2023-01-19T04:17:09.100Z,0.60
2023-01-19T04:19:54.067Z,0.88
2023-01-19T04:22:39.489Z,0.52
2023-01-19T04:25:24.353Z,0.85
2023-01-19T04:28:09.341Z,0.90
2023-01-19T04:30:54.619Z,0.60
2023-01-19T04:33:39.774Z,0.65
2023-01-19T04:36:24.686Z,0.63
2023-01-19T04:39:11.543Z,0.45
2023-01-19T04:41:57.484Z,0.67
2023-01-19T04:44:42.997Z,0.50
2023-01-19T04:47:28.015Z,1.00
2023-01-19T04:50:13.255Z,1.48
2023-01-19T04:52:58.862Z,0.70
2023-01-19T04:55:44.344Z,0.83
2023-01-19T04:58:29.581Z,0.75
2023-01-19T05:01:14.848Z,1.00
2023-01-19T05:04:00.417Z,0.70
2023-01-19T05:06:45.208Z,1.27
2023-01-19T05:09:29.972Z,0.60
2023-01-19T05:12:15.176Z,0.50
2023-01-19T05:15:01.454Z,0.73
2023-01-19T05:17:46.723Z,0.80
2023-01-19T05:20:31.780Z,0.50
2023-01-19T05:23:16.862Z,0.80
2023-01-19T05:26:02.898Z,0.50
2023-01-19T05:28:47.829Z,0.70
2023-01-19T05:31:33.059Z,1.13
2023-01-19T05:34:18.315Z,0.80
2023-01-19T05:37:03.200Z,0.40
2023-01-19T05:39:48.025Z,1.00
2023-01-19T05:42:33.186Z,0.40
2023-01-19T05:45:18.073Z,1.38
2023-01-19T05:48:03.059Z,0.98
2023-01-19T05:50:49.367Z,1.60
2023-01-19T05:53:34.139Z,1.70
2023-01-19T05:56:19.170Z,1.38
2023-01-19T05:59:03.973Z,1.67
2023-01-19T06:01:48.877Z,2.03
2023-01-19T06:04:33.612Z,1.30
2023-01-19T06:07:18.944Z,0.65
2023-01-19T06:10:04.119Z,1.30
2023-01-19T06:12:49.615Z,0.70
2023-01-19T06:15:35.030Z,1.20
2023-01-19T06:18:20.078Z,2.03
2023-01-19T06:21:07.508Z,1.70
2023-01-19T06:23:52.460Z,1.50
2023-01-19T06:26:37.265Z,2.03
2023-01-19T06:29:22.932Z,1.73
2023-01-19T06:32:08.120Z,1.83
2023-01-19T06:34:54.215Z,1.35
2023-01-19T06:37:40.076Z,2.20
2023-01-19T06:40:24.902Z,2.15
2023-01-19T06:43:09.894Z,1.42
2023-01-19T06:45:56.128Z,0.87
2023-01-19T06:48:41.254Z,1.52
2023-01-19T06:51:26.857Z,0.55
2023-01-19T06:54:12.079Z,1.13
2023-01-19T06:56:57.142Z,2.10
2023-01-19T06:59:42.188Z,1.67
2023-01-19T07:02:28.776Z,1.48
2023-01-19T07:05:14.350Z,1.65
2023-01-19T07:07:59.258Z,1.55
2023-01-19T07:11:26.361Z,0.60
2023-01-19T07:13:53.675Z,1.07
2023-01-19T07:16:38.550Z,2.05
2023-01-19T07:19:23.495Z,1.25
2023-01-19T07:22:08.403Z,2.05
2023-01-19T07:24:53.238Z,1.45
2023-01-19T07:27:38.512Z,1.90
2023-01-19T07:30:23.586Z,1.30
2023-01-19T07:33:08.916Z,2.30
2023-01-19T07:35:54.622Z,0.40
2023-01-19T07:38:39.610Z,1.40
2023-01-19T07:41:24.444Z,2.63
2023-01-19T07:44:10.017Z,1.95
2023-01-19T07:46:54.881Z,1.92
2023-01-19T07:49:39.936Z,1.92
2023-01-19T07:52:24.950Z,2.08
2023-01-19T07:55:10.300Z,2.27
2023-01-19T07:57:55.493Z,2.15
2023-01-19T08:00:40.443Z,2.58
2023-01-19T08:03:25.508Z,2.40
2023-01-19T08:06:20.549Z,2.67
2023-01-19T08:09:06.949Z,1.93
2023-01-19T08:11:51.773Z,1.13
2023-01-19T08:14:36.632Z,2.80
2023-01-19T08:17:21.509Z,2.35
2023-01-19T08:20:08.501Z,1.77
2023-01-19T08:22:59.799Z,1.00
2023-01-19T08:25:45.914Z,2.30
2023-01-19T08:28:31.092Z,1.20
2023-01-19T08:31:21.173Z,1.80
2023-01-19T08:34:08.263Z,2.28
2023-01-19T08:36:53.318Z,1.03
2023-01-19T08:39:38.401Z,1.88
2023-01-19T08:42:23.197Z,2.47
2023-01-19T08:45:09.191Z,2.15
2023-01-19T08:47:56.513Z,1.40
2023-01-19T08:50:41.413Z,1.90
2023-01-19T08:53:26.337Z,1.33
2023-01-19T08:56:12.557Z,1.92
2023-01-19T08:59:08.649Z,1.17
2023-01-19T09:01:54.328Z,1.67
2023-01-19T09:04:39.626Z,1.60
2023-01-19T09:07:24.802Z,2.13
2023-01-19T09:10:10.446Z,2.05
2023-01-19T09:12:55.536Z,2.15
2023-01-19T09:15:41.553Z,1.85
2023-01-19T09:18:26.484Z,2.03
2023-01-19T09:21:11.901Z,2.58
2023-01-19T09:23:57.691Z,2.78
2023-01-19T09:26:42.901Z,2.92
2023-01-19T09:29:28.362Z,0.93
2023-01-19T09:32:13.567Z,2.10
2023-01-19T09:34:58.667Z,2.75
2023-01-19T09:37:47.212Z,2.83
2023-01-19T09:40:32.636Z,1.90
2023-01-19T09:43:31.834Z,2.25
2023-01-19T09:46:25.433Z,1.40
2023-01-19T09:49:16.398Z,3.20
2023-01-19T09:52:02.505Z,2.60
2023-01-19T09:54:56.481Z,3.22
2023-01-19T09:57:41.469Z,2.25
2023-01-19T10:00:28.672Z,3.57
2023-01-19T10:03:17.578Z,3.05
2023-01-19T10:06:07.150Z,3.03
2023-01-19T10:09:10.477Z,2.97
2023-01-19T10:12:03.520Z,3.28
2023-01-19T10:15:17.945Z,3.00
2023-01-19T10:18:12.959Z,4.22
2023-01-19T10:21:12.871Z,4.25
2023-01-19T10:24:05.837Z,3.63
2023-01-19T10:26:53.961Z,2.30
2023-01-19T10:29:38.833Z,3.37
2023-01-19T10:32:30.331Z,2.10
2023-01-19T10:35:21.862Z,4.15
2023-01-19T10:38:13.523Z,4.55
2023-01-19T10:41:05.050Z,0.88
2023-01-19T10:44:00.108Z,4.37
2023-01-19T10:46:48.096Z,2.58
2023-01-19T10:49:42.575Z,2.63
2023-01-19T10:52:36.417Z,3.70
2023-01-19T10:55:30.581Z,4.80
2023-01-19T10:58:30.556Z,2.43
2023-01-19T11:01:17.830Z,3.65
2023-01-19T11:04:27.698Z,3.75
2023-01-19T11:07:14.403Z,2.15
2023-01-19T11:10:17.604Z,2.10
2023-01-19T11:13:12.588Z,4.70
2023-01-19T11:16:05.157Z,1.58
2023-01-19T11:18:53.267Z,1.73
2023-01-19T11:21:38.426Z,1.63
2023-01-19T11:24:23.480Z,4.35
2023-01-19T11:27:08.328Z,2.10
2023-01-19T11:30:01.611Z,3.47
2023-01-19T11:32:47.639Z,3.55
2023-01-19T11:35:37.139Z,4.35
2023-01-19T11:38:23.390Z,3.85
2023-01-19T11:41:16.741Z,4.80
2023-01-19T11:44:23.406Z,2.33
2023-01-19T11:47:21.712Z,3.42
2023-01-19T11:50:15.561Z,1.90
2023-01-19T11:53:33.124Z,4.25
2023-01-19T11:56:20.446Z,4.33
2023-01-19T11:59:05.296Z,3.53
2023-01-19T12:01:56.124Z,2.90
2023-01-19T12:04:42.468Z,2.60
2023-01-19T12:07:32.988Z,4.47
2023-01-19T12:10:24.897Z,3.50
2023-01-19T12:13:22.983Z,5.32
2023-01-19T12:16:11.943Z,4.60
2023-01-19T12:19:36.934Z,3.40
2023-01-19T12:22:23.870Z,1.63
2023-01-19T12:25:21.946Z,4.37
2023-01-19T12:28:12.595Z,4.57
2023-01-19T12:31:00.275Z,2.50
2023-01-19T12:33:45.839Z,3.53
2023-01-19T12:36:33.017Z,4.65
2023-01-19T12:39:22.711Z,2.37
2023-01-19T12:42:14.411Z,2.42
2023-01-19T12:45:08.300Z,4.28
2023-01-19T12:47:53.730Z,3.03
2023-01-19T12:50:38.884Z,4.43
2023-01-19T12:53:26.386Z,4.57
2023-01-19T12:56:17.364Z,4.43
2023-01-19T12:59:04.573Z,4.63
2023-01-19T13:02:37.286Z,4.47
2023-01-19T13:05:25.507Z,4.28
2023-01-19T13:08:11.184Z,4.07
2023-01-19T13:10:58.987Z,4.63
2023-01-19T13:13:49.932Z,3.45
2023-01-19T13:16:37.503Z,4.53
2023-01-19T13:19:34.867Z,3.55
2023-01-19T13:22:50.516Z,3.97
2023-01-19T13:25:36.135Z,3.70
2023-01-19T13:28:30.492Z,4.50
2023-01-19T13:31:16.358Z,3.00
2023-01-19T13:34:02.809Z,3.22
2023-01-19T13:36:51.931Z,4.70
2023-01-19T13:39:40.731Z,2.47
2023-01-19T13:42:35.061Z,3.75
2023-01-19T13:45:37.677Z,1.17
2023-01-19T13:48:24.740Z,2.80
2023-01-19T13:51:18.001Z,4.23
2023-01-19T13:54:02.984Z,3.78
2023-01-19T13:56:50.141Z,4.95
2023-01-19T13:59:35.183Z,3.65
2023-01-19T14:02:20.702Z,3.97
2023-01-19T14:05:20.007Z,4.33
2023-01-19T14:08:13.088Z,3.92
2023-01-19T14:10:59.891Z,3.55
2023-01-19T14:13:45.105Z,4.10
2023-01-19T14:16:30.402Z,4.28
2023-01-19T14:19:15.296Z,3.73
2023-01-19T14:22:03.185Z,3.65
2023-01-19T14:24:48.106Z,2.65
2023-01-19T14:27:33.304Z,3.58
2023-01-19T14:30:22.344Z,4.00
2023-01-19T14:33:33.858Z,3.40
2023-01-19T14:36:21.853Z,3.88
2023-01-19T14:39:23.322Z,2.47
2023-01-19T14:42:17.462Z,3.70
2023-01-19T14:45:07.816Z,3.45
2023-01-19T14:48:18.237Z,4.30
2023-01-19T14:51:04.880Z,3.28
2023-01-19T14:53:56.860Z,2.53
2023-01-19T14:56:43.550Z,3.10
2023-01-19T14:59:28.855Z,3.72
2023-01-19T15:02:14.188Z,3.07
2023-01-19T15:04:59.314Z,3.45
2023-01-19T15:07:46.124Z,3.58
2023-01-19T15:10:31.416Z,3.40
2023-01-19T15:13:21.869Z,3.50
2023-01-19T15:16:08.805Z,2.97
2023-01-19T15:18:53.852Z,3.60
2023-01-19T15:21:41.991Z,3.60
2023-01-19T15:24:26.985Z,3.10
2023-01-19T15:27:12.216Z,3.40
2023-01-19T15:29:59.347Z,3.10
2023-01-19T15:32:44.553Z,2.63
2023-01-19T15:35:29.610Z,3.38
2023-01-19T15:38:14.452Z,2.40
2023-01-19T15:40:59.513Z,2.40
2023-01-19T15:43:44.472Z,2.80
2023-01-19T15:46:29.623Z,2.75
2023-01-19T15:49:14.861Z,3.40
2023-01-19T15:51:59.642Z,2.92
2023-01-19T15:54:44.706Z,2.90
2023-01-19T15:57:29.535Z,2.40
2023-01-19T16:00:15.043Z,3.10
2023-01-19T16:03:01.730Z,3.38
2023-01-19T16:05:47.585Z,3.08
2023-01-19T16:08:32.427Z,2.78
2023-01-19T16:11:18.532Z,3.03
2023-01-19T16:14:03.776Z,2.72
2023-01-19T16:16:49.138Z,3.58
2023-01-19T16:19:34.297Z,2.72
2023-01-19T16:22:19.587Z,3.00
2023-01-19T16:25:05.203Z,2.27
2023-01-19T16:27:50.699Z,3.15
2023-01-19T16:30:35.970Z,3.03
2023-01-19T16:33:20.853Z,3.25
2023-01-19T16:36:26.941Z,3.47
2023-01-19T16:39:14.099Z,3.23
2023-01-19T16:41:58.931Z,3.05
2023-01-19T16:44:44.130Z,3.33
2023-01-19T16:47:28.902Z,3.03
2023-01-19T16:50:14.022Z,3.03
2023-01-19T16:52:58.947Z,2.27
2023-01-19T16:55:43.692Z,3.33
2023-01-19T16:58:28.714Z,3.03
2023-01-19T17:01:18.232Z,3.15
2023-01-19T17:04:05.266Z,4.35
2023-01-19T17:06:50.547Z,3.30
2023-01-19T17:09:35.259Z,3.25
2023-01-19T17:12:20.529Z,3.40
2023-01-19T17:15:05.869Z,3.50
2023-01-19T17:17:51.029Z,3.83
2023-01-19T17:20:36.210Z,4.00
2023-01-19T17:23:21.441Z,4.03
2023-01-19T17:26:06.719Z,3.53
2023-01-19T17:28:51.981Z,4.45
2023-01-19T17:31:37.525Z,4.32
2023-01-19T17:34:22.664Z,4.10
2023-01-19T17:37:07.870Z,4.30
2023-01-19T17:39:54.753Z,5.18
2023-01-19T17:42:42.950Z,3.45
2023-01-19T17:45:27.877Z,3.42
2023-01-19T17:48:13.290Z,4.33
2023-01-19T17:51:03.386Z,4.38
2023-01-19T17:53:49.847Z,4.13
2023-01-19T17:56:37.462Z,4.15
2023-01-19T17:59:22.241Z,4.10
2023-01-19T18:02:09.083Z,3.30
2023-01-19T18:04:54.448Z,3.95
2023-01-19T18:07:40.088Z,4.38
2023-01-19T18:10:25.018Z,3.47
2023-01-19T18:13:09.957Z,3.58
2023-01-19T18:16:07.243Z,3.97
2023-01-19T18:18:53.799Z,3.67
2023-01-19T18:21:38.758Z,4.07
2023-01-19T18:24:24.023Z,4.53
2023-01-19T18:27:08.977Z,4.63
2023-01-19T18:29:53.805Z,5.10
2023-01-19T18:32:39.019Z,4.55
2023-01-19T18:35:23.971Z,4.82
2023-01-19T18:38:09.015Z,3.47
2023-01-19T18:41:05.822Z,3.90
2023-01-19T18:43:53.368Z,3.97
2023-01-19T18:46:38.831Z,4.72
2023-01-19T18:49:23.909Z,4.47
2023-01-19T18:52:09.001Z,4.57
2023-01-19T18:54:54.312Z,3.78
2023-01-19T18:57:39.019Z,3.47
2023-01-19T19:00:24.000Z,3.65
2023-01-19T19:03:10.262Z,3.20
2023-01-19T19:05:55.352Z,3.40
2023-01-19T19:08:40.530Z,3.03
2023-01-19T19:11:26.649Z,2.97
2023-01-19T19:14:11.852Z,3.30
2023-01-19T19:16:56.680Z,3.42
2023-01-19T19:19:41.767Z,3.35
2023-01-19T19:22:26.854Z,2.95
2023-01-19T19:25:11.570Z,3.37
2023-01-19T19:27:56.215Z,3.83
2023-01-19T19:30:41.363Z,3.25
2023-01-19T19:33:26.455Z,3.17
2023-01-19T19:36:12.460Z,3.53
2023-01-19T19:38:59.049Z,3.37
2023-01-19T19:41:44.230Z,3.90
2023-01-19T19:44:29.357Z,3.20
2023-01-19T19:47:14.551Z,3.92
2023-01-19T19:49:59.620Z,4.43
2023-01-19T19:52:44.515Z,3.43
2023-01-19T19:55:30.094Z,3.28
2023-01-19T19:58:14.880Z,4.57
2023-01-19T20:01:03.084Z,3.65
2023-01-19T20:03:48.938Z,4.20
2023-01-19T20:06:38.550Z,4.90
2023-01-19T20:09:23.611Z,5.15
2023-01-19T20:12:09.525Z,5.70
2023-01-19T20:14:54.522Z,5.43
2023-01-19T20:17:55.992Z,4.60
2023-01-19T20:20:41.142Z,4.83
2023-01-19T20:23:26.361Z,5.45
2023-01-19T20:26:14.147Z,8.13
2023-01-19T20:29:02.894Z,6.22
2023-01-19T20:31:54.474Z,6.32
2023-01-19T20:34:39.910Z,6.37
2023-01-19T20:37:25.041Z,5.88
2023-01-19T20:40:10.009Z,5.43
2023-01-19T20:42:54.773Z,4.50
2023-01-19T20:45:39.683Z,3.70
2023-01-19T20:48:24.488Z,3.50
2023-01-19T20:51:13.089Z,3.63
2023-01-19T20:53:58.111Z,2.25
2023-01-19T20:56:43.314Z,2.67
2023-01-19T20:59:28.668Z,3.55
2023-01-19T21:02:15.006Z,5.37
2023-01-19T21:05:00.248Z,4.70
2023-01-19T21:07:45.232Z,3.15
2023-01-19T21:10:30.099Z,2.92
2023-01-19T21:13:15.130Z,2.50
2023-01-19T21:16:00.999Z,2.30
2023-01-19T21:18:46.010Z,1.65
2023-01-19T21:21:31.970Z,2.38
2023-01-19T21:24:17.172Z,2.00
2023-01-19T21:27:02.282Z,2.10
2023-01-19T21:29:48.217Z,2.33
2023-01-19T21:32:33.165Z,2.88
2023-01-19T21:35:18.323Z,3.00
2023-01-19T21:38:03.095Z,2.63
2023-01-19T21:40:48.511Z,2.78
2023-01-19T21:43:35.807Z,3.33
2023-01-19T21:46:22.869Z,3.00
2023-01-19T21:49:10.256Z,3.00
2023-01-19T21:51:55.277Z,2.80
2023-01-19T21:54:40.278Z,2.78
2023-01-19T21:57:25.078Z,1.87
2023-01-19T22:00:10.840Z,2.42
2023-01-19T22:03:03.781Z,2.20
2023-01-19T22:05:49.720Z,2.03
2023-01-19T22:08:35.008Z,2.30
2023-01-19T22:11:20.782Z,1.90
2023-01-19T22:14:05.540Z,2.17
2023-01-19T22:16:50.757Z,2.35
2023-01-19T22:19:35.936Z,2.08
2023-01-19T22:22:20.739Z,2.47
2023-01-19T22:25:06.269Z,2.67
2023-01-19T22:27:51.116Z,2.38
2023-01-19T22:30:36.201Z,2.45
2023-01-19T22:33:21.212Z,2.58
2023-01-19T22:36:28.390Z,2.97
2023-01-19T22:39:13.601Z,2.70
2023-01-19T22:41:58.741Z,2.47
2023-01-19T22:44:43.529Z,2.88
2023-01-19T22:47:28.603Z,3.25
2023-01-19T22:50:13.549Z,2.88
2023-01-19T22:52:58.509Z,2.53
2023-01-19T22:55:43.317Z,2.13
2023-01-19T22:58:28.104Z,1.90
2023-01-19T23:01:22.600Z,2.70
2023-01-19T23:04:12.330Z,2.15
2023-01-19T23:06:57.414Z,2.30
2023-01-19T23:09:42.460Z,2.58
2023-01-19T23:12:27.722Z,2.67
2023-01-19T23:15:12.979Z,2.10
2023-01-19T23:17:57.860Z,2.05
2023-01-19T23:20:42.626Z,1.93
2023-01-19T23:23:27.982Z,2.83
2023-01-19T23:26:14.170Z,2.72
2023-01-19T23:29:01.554Z,3.00
2023-01-19T23:31:48.917Z,2.22
2023-01-19T23:34:33.698Z,2.57
2023-01-19T23:37:18.655Z,2.70
2023-01-19T23:40:03.690Z,2.60
2023-01-19T23:42:48.619Z,2.83
2023-01-19T23:45:35.508Z,3.03
2023-01-19T23:48:20.599Z,3.07
2023-01-19T23:51:07.344Z,2.85
2023-01-19T23:53:52.667Z,3.35
2023-01-19T23:56:38.641Z,2.63
2023-01-19T23:59:23.836Z,2.92
